Aviation Digital Data Service (ADDS)

Output produced by METARs form (2026 UTC 20 July 2017)
found at http://www.aviationweather.gov/adds/metars/
 
METAR text: KSET 201954Z AUTO 22007KT 10SM CLR 37/20 A2999 RMK AO2 SLP150 T03670200 $
Conditions at: KSET (ST. CHARLES , MO, US) observed 1954 UTC 20 July 2017
Temperature: 36.7°C (98°F)
Dewpoint: 20.0°C (68°F) [RH = 38%]
Pressure (altimeter): 29.99 inches Hg (1015.7 mb)
[Sea-level pressure: 1015.0 mb]
Winds: from the SW (220 degrees) at 8 MPH (7 knots; 3.6 m/s)
Visibility: 10 or more miles (16+ km)
Ceiling: at least 12,000 feet AGL
Clouds: sky clear below 12,000 feet AGL
Weather:
SOME DATA ABOVE MAY BE INACCURATE!!!
"$" is an indication the sensor requires maintenance